Time;durP1;ratioP1;P1;durP2;ratioP2;P2;SDS_P1;SDS_P2;PMS_P1;PMS_P2;Temp;Humidity;BMP_temperature;BMP_pressure;BME280_temperature;BME280_humidity;BME280_pressure;Samples;Min_cycle;Max_cycle;Signal;HPM_P1;HPM_P2
2023/05/08 00:01:02;;;;;;;18.48;12.93;;;;;;;;;;7369470;19;20017;-71
2023/05/08 00:03:28;;;;;;;16.75;11.60;;;;;;;;;;7392065;19;20010;-70
2023/05/08 00:05:54;;;;;;;19.50;11.48;;;;;;;;;;7372993;19;20043;-70
2023/05/08 00:08:20;;;;;;;15.32;9.82;;;;;;;;;;7373899;19;20548;-70
2023/05/08 00:10:45;;;;;;;17.88;11.05;;;;;;;;;;7370401;19;20029;-71
2023/05/08 00:13:11;;;;;;;16.13;10.68;;;;;;;;;;7370712;19;20805;-71
2023/05/08 00:15:36;;;;;;;18.42;10.68;;;;;;;;;;7391906;19;20368;-71
2023/05/08 00:18:01;;;;;;;16.92;10.18;;;;;;;;;;7367944;19;20006;-71
2023/05/08 00:20:27;;;;;;;15.48;9.52;;;;;;;;;;7373708;19;20490;-71
2023/05/08 00:22:53;;;;;;;14.60;9.77;;;;;;;;;;7375263;19;20011;-71
2023/05/08 00:25:18;;;;;;;17.83;10.63;;;;;;;;;;7376563;19;20017;-71
2023/05/08 00:27:43;;;;;;;13.73;8.93;;;;;;;;;;7369252;19;20465;-71
2023/05/08 00:30:09;;;;;;;12.40;8.23;;;;;;;;;;7392262;19;19995;-71
2023/05/08 00:32:35;;;;;;;11.25;8.48;;;;;;;;;;7370819;19;20015;-71
2023/05/08 00:35:00;;;;;;;12.95;8.35;;;;;;;;;;7370273;19;20349;-71
2023/05/08 00:37:25;;;;;;;11.23;7.78;;;;;;;;;;7369220;19;20113;-71
2023/05/08 00:39:51;;;;;;;13.75;8.25;;;;;;;;;;7370273;19;20496;-71
2023/05/08 00:42:16;;;;;;;13.40;8.68;;;;;;;;;;7390655;19;20002;-71
2023/05/08 00:44:42;;;;;;;16.02;9.10;;;;;;;;;;7369218;19;20015;-71
2023/05/08 00:47:08;;;;;;;12.55;8.77;;;;;;;;;;7367820;19;20021;-70
2023/05/08 00:49:34;;;;;;;12.80;9.15;;;;;;;;;;7369135;19;20488;-71
2023/05/08 00:52:01;;;;;;;15.20;8.77;;;;;;;;;;7369567;19;20019;-72
2023/05/08 00:54:27;;;;;;;16.33;9.88;;;;;;;;;;7397275;19;20006;-71
2023/05/08 00:56:54;;;;;;;15.05;10.40;;;;;;;;;;7376856;19;20002;-71
2023/05/08 00:59:21;;;;;;;18.60;9.90;;;;;;;;;;7377464;19;20010;-71
2023/05/08 01:01:48;;;;;;;13.05;9.73;;;;;;;;;;7377219;19;20018;-71
2023/05/08 01:04:14;;;;;;;22.33;10.45;;;;;;;;;;7378229;19;20018;-70
2023/05/08 01:06:39;;;;;;;15.70;9.98;;;;;;;;;;7376169;19;20013;-71
2023/05/08 01:09:05;;;;;;;14.05;9.82;;;;;;;;;;7400385;19;20010;-71
2023/05/08 01:11:55;;;;;;;15.07;10.18;;;;;;;;;;7376514;19;20035;-71
2023/05/08 01:14:46;;;;;;;13.52;9.50;;;;;;;;;;7377093;19;20011;-70
2023/05/08 01:17:14;;;;;;;;;;;;;;;;;;7375070;19;20502;-70
2023/05/08 01:19:53;;;;;;;15.40;9.75;;;;;;;;;;7374036;19;19922;-70
2023/05/08 01:22:52;;;;;;;16.23;9.65;;;;;;;;;;7375583;19;20010;-70
2023/05/08 01:25:55;;;;;;;15.20;9.68;;;;;;;;;;7376493;19;20013;-70
2023/05/08 01:28:48;;;;;;;15.27;9.98;;;;;;;;;;7377467;19;20488;-70
2023/05/08 01:31:25;;;;;;;14.75;10.02;;;;;;;;;;7377722;19;20010;-71
2023/05/08 01:34:17;;;;;;;13.82;9.65;;;;;;;;;;7375478;19;20012;-70
2023/05/08 01:36:45;;;;;;;14.60;9.38;;;;;;;;;;7373181;19;20018;-71
2023/05/08 01:39:20;;;;;;;12.32;8.65;;;;;;;;;;7394719;19;20089;-70
2023/05/08 01:41:54;;;;;;;12.40;9.32;;;;;;;;;;7374605;19;20007;-71
2023/05/08 01:44:25;;;;;;;11.57;8.40;;;;;;;;;;7374716;19;20489;-71
2023/05/08 01:46:50;;;;;;;;;;;;;;;;;;7372190;19;20015;-71
2023/05/08 01:50:17;;;;;;;13.35;8.40;;;;;;;;;;7372833;19;19933;-71
2023/05/08 01:52:49;;;;;;;13.05;9.52;;;;;;;;;;7370181;19;20007;-71
2023/05/08 01:55:27;;;;;;;16.45;9.25;;;;;;;;;;7371602;19;20097;-71
2023/05/08 01:57:56;;;;;;;14.75;9.30;;;;;;;;;;7370612;19;20007;-72
2023/05/08 02:00:24;;;;;;;14.10;10.07;;;;;;;;;;7396005;19;20001;-71
2023/05/08 02:02:51;;;;;;;14.63;9.95;;;;;;;;;;7373262;19;20013;-72
2023/05/08 02:05:17;;;;;;;14.38;9.60;;;;;;;;;;7373521;19;20086;-71
2023/05/08 02:07:45;;;;;;;14.05;9.40;;;;;;;;;;7372035;19;20015;-71
2023/05/08 02:10:12;;;;;;;13.98;9.85;;;;;;;;;;7373295;19;20010;-71
2023/05/08 02:12:39;;;;;;;13.55;9.55;;;;;;;;;;7392076;19;20027;-73
2023/05/08 02:15:07;;;;;;;16.05;9.82;;;;;;;;;;7395414;19;20009;-71
2023/05/08 02:17:36;;;;;;;13.57;9.73;;;;;;;;;;7371241;19;20011;-71
2023/05/08 02:20:03;;;;;;;15.00;9.43;;;;;;;;;;7374032;19;20109;-71
2023/05/08 02:22:30;;;;;;;15.60;9.73;;;;;;;;;;7373365;19;20038;-71
2023/05/08 02:24:56;;;;;;;15.00;10.10;;;;;;;;;;7373688;19;20005;-71
2023/05/08 02:27:25;;;;;;;14.93;10.35;;;;;;;;;;7394021;19;20589;-71
2023/05/08 02:29:51;;;;;;;17.27;10.20;;;;;;;;;;7373176;19;20081;-71
2023/05/08 02:32:19;;;;;;;13.27;9.90;;;;;;;;;;7373134;19;20111;-71
2023/05/08 02:34:47;;;;;;;13.20;9.88;;;;;;;;;;7373018;19;20007;-71
2023/05/08 02:37:14;;;;;;;13.68;9.98;;;;;;;;;;7371590;19;20010;-71
2023/05/08 02:39:41;;;;;;;16.45;10.85;;;;;;;;;;7371167;19;20769;-72
2023/05/08 02:42:06;;;;;;;15.10;10.55;;;;;;;;;;7394400;19;20027;-71
2023/05/08 02:44:32;;;;;;;13.85;10.05;;;;;;;;;;7372769;19;20006;-71
2023/05/08 02:47:42;;;;;;;15.57;9.45;;;;;;;;;;7370566;19;20018;-71
2023/05/08 02:50:27;;;;;;;13.60;9.50;;;;;;;;;;7371787;19;20011;-71
2023/05/08 02:53:01;;;;;;;17.25;9.85;;;;;;;;;;7372971;19;20035;-71
2023/05/08 02:55:41;;;;;;;20.17;9.60;;;;;;;;;;7373270;19;20006;-71
2023/05/08 02:58:16;;;;;;;15.65;9.75;;;;;;;;;;7370319;19;20051;-71
2023/05/08 03:00:52;;;;;;;15.45;9.23;;;;;;;;;;7370692;19;20479;-71
2023/05/08 03:03:26;;;;;;;12.45;8.85;;;;;;;;;;7393473;19;20073;-71
2023/05/08 03:05:54;;;;;;;13.73;9.40;;;;;;;;;;7371327;19;20006;-71
2023/05/08 03:08:33;;;;;;;13.20;9.38;;;;;;;;;;7370318;19;20003;-71
2023/05/08 03:11:04;;;;;;;14.93;8.77;;;;;;;;;;7370567;19;20015;-72
2023/05/08 03:13:34;;;;;;;13.25;9.57;;;;;;;;;;7371358;19;20023;-72
2023/05/08 03:16:02;;;;;;;12.10;8.65;;;;;;;;;;7367798;19;20411;-72
2023/05/08 03:18:35;;;;;;;13.40;9.27;;;;;;;;;;7392317;19;20380;-71
2023/05/08 03:21:02;;;;;;;12.65;8.55;;;;;;;;;;7372077;19;20014;-71
2023/05/08 03:23:29;;;;;;;12.85;8.88;;;;;;;;;;7370614;19;20012;-71
2023/05/08 03:25:57;;;;;;;11.30;8.20;;;;;;;;;;7370693;19;20024;-71
2023/05/08 03:28:23;;;;;;;14.27;8.95;;;;;;;;;;7368819;19;20007;-72
2023/05/08 03:30:49;;;;;;;13.13;8.40;;;;;;;;;;7370275;19;19998;-71
2023/05/08 03:33:16;;;;;;;11.27;8.32;;;;;;;;;;7392982;19;20078;-71
2023/05/08 03:35:43;;;;;;;12.10;8.35;;;;;;;;;;7368882;19;20006;-71
2023/05/08 03:38:09;;;;;;;14.13;8.35;;;;;;;;;;7368381;19;20032;-71
2023/05/08 03:40:38;;;;;;;10.82;8.32;;;;;;;;;;7371192;19;20002;-71
2023/05/08 03:43:10;;;;;;;11.75;8.25;;;;;;;;;;7372761;19;20583;-71
2023/05/08 03:45:37;;;;;;;12.40;8.07;;;;;;;;;;7392416;19;20002;-71
2023/05/08 03:48:08;;;;;;;16.00;7.95;;;;;;;;;;7367879;19;20031;-71
2023/05/08 03:50:35;;;;;;;14.25;8.23;;;;;;;;;;7368477;19;20473;-71
2023/05/08 03:53:00;;;;;;;11.95;7.25;;;;;;;;;;7364119;19;19999;-71
2023/05/08 03:55:26;;;;;;;12.38;7.82;;;;;;;;;;7369979;19;20018;-71
2023/05/08 03:58:00;;;;;;;11.60;7.43;;;;;;;;;;7367800;19;20007;-71
2023/05/08 04:00:45;;;;;;;12.60;7.78;;;;;;;;;;7391635;19;20013;-71
2023/05/08 04:03:23;;;;;;;13.70;8.07;;;;;;;;;;7369934;19;20506;-71
2023/05/08 04:06:37;;;;;;;11.05;7.90;;;;;;;;;;7369178;19;20026;-71
2023/05/08 04:09:25;;;;;;;12.73;7.78;;;;;;;;;;7367542;19;20002;-72
2023/05/08 04:11:59;;;;;;;10.25;7.13;;;;;;;;;;7369072;19;20006;-72
2023/05/08 04:14:28;;;;;;;13.98;7.43;;;;;;;;;;7369897;19;20014;-71
2023/05/08 04:17:01;;;;;;;12.43;7.07;;;;;;;;;;7369133;19;20011;-71
2023/05/08 04:19:32;;;;;;;11.45;7.05;;;;;;;;;;7368932;19;20010;-71
2023/05/08 04:22:00;;;;;;;10.90;7.75;;;;;;;;;;7371132;19;20006;-72
2023/05/08 04:24:27;;;;;;;13.00;7.53;;;;;;;;;;7391972;19;20006;-71
2023/05/08 04:26:53;;;;;;;9.85;6.68;;;;;;;;;;7366931;19;20017;-71
2023/05/08 04:29:19;;;;;;;10.85;7.13;;;;;;;;;;7368288;19;20010;-71
2023/05/08 04:31:45;;;;;;;12.20;8.05;;;;;;;;;;7368255;19;20015;-72
2023/05/08 04:34:11;;;;;;;10.00;6.72;;;;;;;;;;7369593;19;20041;-72
2023/05/08 04:36:37;;;;;;;10.68;7.70;;;;;;;;;;7389847;19;20010;-72
2023/05/08 04:39:02;;;;;;;10.30;7.38;;;;;;;;;;7369186;19;20391;-71
2023/05/08 04:41:28;;;;;;;13.38;7.68;;;;;;;;;;7369848;19;20018;-71
2023/05/08 04:43:53;;;;;;;11.48;7.47;;;;;;;;;;7368606;19;20015;-72
2023/05/08 04:46:18;;;;;;;11.07;7.35;;;;;;;;;;7368383;19;20050;-72
2023/05/08 04:48:44;;;;;;;11.23;7.65;;;;;;;;;;7367788;19;20033;-72
2023/05/08 04:51:09;;;;;;;9.88;6.72;;;;;;;;;;7388171;19;19999;-71
2023/05/08 04:53:34;;;;;;;10.77;7.75;;;;;;;;;;7365596;19;20085;-71
2023/05/08 04:56:00;;;;;;;9.88;7.32;;;;;;;;;;7370457;19;20013;-72
2023/05/08 04:58:25;;;;;;;13.55;8.07;;;;;;;;;;7371960;19;20018;-72
2023/05/08 05:00:50;;;;;;;11.25;7.88;;;;;;;;;;7370872;19;19998;-72
2023/05/08 05:03:16;;;;;;;11.65;7.63;;;;;;;;;;7393787;19;20007;-71
2023/05/08 05:05:41;;;;;;;10.27;7.55;;;;;;;;;;7370063;19;20014;-71
2023/05/08 05:08:06;;;;;;;12.93;8.05;;;;;;;;;;7369592;19;20022;-71
2023/05/08 05:10:32;;;;;;;11.45;7.72;;;;;;;;;;7370962;19;20014;-71
2023/05/08 05:12:57;;;;;;;10.70;7.93;;;;;;;;;;7370569;19;20020;-71
2023/05/08 05:15:22;;;;;;;12.02;8.13;;;;;;;;;;7391694;19;20473;-70
2023/05/08 05:17:48;;;;;;;10.75;7.78;;;;;;;;;;7367023;19;20540;-70
2023/05/08 05:20:13;;;;;;;10.02;7.13;;;;;;;;;;7370653;19;20509;-70
2023/05/08 05:22:39;;;;;;;10.40;7.85;;;;;;;;;;7370106;19;20031;-71
2023/05/08 05:25:06;;;;;;;12.02;7.82;;;;;;;;;;7368063;19;20025;-71
2023/05/08 05:27:34;;;;;;;16.20;8.57;;;;;;;;;;7388608;19;20007;-71
2023/05/08 05:29:59;;;;;;;12.23;8.07;;;;;;;;;;7368350;19;20011;-70
2023/05/08 05:32:25;;;;;;;11.55;8.43;;;;;;;;;;7368624;19;20015;-70
2023/05/08 05:34:51;;;;;;;14.40;8.70;;;;;;;;;;7369499;19;20022;-71
2023/05/08 05:37:16;;;;;;;13.18;8.70;;;;;;;;;;7367340;19;20372;-71
2023/05/08 05:39:42;;;;;;;12.30;8.30;;;;;;;;;;7367971;19;20066;-72
2023/05/08 05:42:07;;;;;;;13.18;8.90;;;;;;;;;;7396863;19;20405;-71
2023/05/08 05:44:32;;;;;;;11.65;8.23;;;;;;;;;;7374614;19;20014;-71
2023/05/08 05:46:58;;;;;;;14.50;9.20;;;;;;;;;;7374369;19;20039;-71
2023/05/08 05:49:23;;;;;;;15.20;8.50;;;;;;;;;;7373780;19;20019;-71
2023/05/08 05:51:48;;;;;;;26.75;10.05;;;;;;;;;;7374763;19;20372;-71
2023/05/08 05:54:14;;;;;;;13.38;8.93;;;;;;;;;;7396316;19;20464;-71
2023/05/08 05:56:39;;;;;;;19.40;9.50;;;;;;;;;;7374385;19;20014;-71
2023/05/08 05:59:04;;;;;;;14.82;8.75;;;;;;;;;;7375384;19;20006;-70
2023/05/08 06:01:30;;;;;;;14.60;9.45;;;;;;;;;;7373881;19;20045;-70
2023/05/08 06:03:55;;;;;;;12.52;8.57;;;;;;;;;;7374802;19;20497;-71
2023/05/08 06:06:20;;;;;;;12.20;8.70;;;;;;;;;;7395734;19;20457;-71
2023/05/08 06:08:47;;;;;;;11.10;7.95;;;;;;;;;;7374190;19;20365;-71
2023/05/08 06:11:12;;;;;;;15.80;9.18;;;;;;;;;;7374555;19;20006;-71
2023/05/08 06:13:39;;;;;;;14.73;8.85;;;;;;;;;;7373442;19;20022;-71
2023/05/08 06:16:06;;;;;;;14.77;8.55;;;;;;;;;;7375073;19;20078;-71
2023/05/08 06:18:31;;;;;;;13.40;8.65;;;;;;;;;;7395622;19;20003;-71
2023/05/08 06:20:57;;;;;;;13.02;9.15;;;;;;;;;;7378259;19;20014;-72
2023/05/08 06:23:23;;;;;;;16.15;9.30;;;;;;;;;;7377821;19;20676;-71
2023/05/08 06:25:48;;;;;;;16.30;9.68;;;;;;;;;;7373913;19;20014;-71
2023/05/08 06:28:14;;;;;;;15.75;10.00;;;;;;;;;;7371286;19;20074;-71
2023/05/08 06:30:39;;;;;;;12.43;8.52;;;;;;;;;;7378785;19;20078;-71
2023/05/08 06:33:05;;;;;;;13.90;8.57;;;;;;;;;;7395887;19;20460;-71
2023/05/08 06:35:30;;;;;;;12.25;8.38;;;;;;;;;;7374770;19;20006;-71
2023/05/08 06:37:56;;;;;;;13.80;8.48;;;;;;;;;;7371971;19;20010;-70
2023/05/08 06:40:22;;;;;;;12.07;7.60;;;;;;;;;;7374078;19;20014;-71
2023/05/08 06:42:47;;;;;;;15.10;8.57;;;;;;;;;;7374091;19;20013;-71
2023/05/08 06:45:13;;;;;;;11.95;8.43;;;;;;;;;;7393900;19;20006;-72
2023/05/08 06:47:38;;;;;;;12.43;8.52;;;;;;;;;;7370933;19;20072;-71
2023/05/08 06:50:04;;;;;;;10.32;6.88;;;;;;;;;;7372173;19;20010;-71
2023/05/08 06:52:30;;;;;;;12.93;7.60;;;;;;;;;;7369854;19;20152;-71
2023/05/08 06:54:55;;;;;;;11.93;8.35;;;;;;;;;;7372734;19;20571;-71
2023/05/08 06:57:20;;;;;;;13.25;8.20;;;;;;;;;;7392739;19;20006;-71
2023/05/08 06:59:46;;;;;;;12.65;8.73;;;;;;;;;;7372379;19;20050;-71
2023/05/08 07:02:11;;;;;;;13.48;8.65;;;;;;;;;;7372383;19;20011;-71
2023/05/08 07:04:37;;;;;;;13.02;8.07;;;;;;;;;;7372647;19;20003;-72
2023/05/08 07:07:02;;;;;;;13.63;8.65;;;;;;;;;;7371149;19;20027;-71
2023/05/08 07:09:28;;;;;;;12.57;8.40;;;;;;;;;;7396003;19;20002;-71
2023/05/08 07:11:53;;;;;;;11.40;8.38;;;;;;;;;;7372699;19;20022;-72
2023/05/08 07:14:18;;;;;;;12.00;8.40;;;;;;;;;;7371187;19;20009;-71
2023/05/08 07:16:44;;;;;;;12.80;9.05;;;;;;;;;;7371473;19;20078;-71
2023/05/08 07:19:09;;;;;;;12.65;8.38;;;;;;;;;;7371041;19;20010;-71
2023/05/08 07:21:35;;;;;;;13.77;8.32;;;;;;;;;;7393932;19;20015;-71
2023/05/08 07:24:00;;;;;;;11.82;8.15;;;;;;;;;;7372324;19;20013;-71
2023/05/08 07:26:26;;;;;;;14.40;8.73;;;;;;;;;;7371217;19;20027;-71
2023/05/08 07:28:53;;;;;;;13.23;8.10;;;;;;;;;;7372299;19;20014;-71
2023/05/08 07:31:18;;;;;;;13.95;7.90;;;;;;;;;;7371758;19;20564;-71
2023/05/08 07:33:45;;;;;;;11.45;7.70;;;;;;;;;;7370761;19;20017;-71
2023/05/08 07:36:11;;;;;;;13.15;8.73;;;;;;;;;;7393248;19;20013;-71
2023/05/08 07:38:36;;;;;;;12.63;9.15;;;;;;;;;;7369277;19;19995;-71
2023/05/08 07:41:01;;;;;;;11.73;7.53;;;;;;;;;;7371424;19;20731;-71
2023/05/08 07:43:27;;;;;;;10.55;6.70;;;;;;;;;;7371941;19;20041;-71
2023/05/08 07:45:52;;;;;;;14.27;7.88;;;;;;;;;;7372130;19;20006;-71
2023/05/08 07:48:18;;;;;;;11.52;8.02;;;;;;;;;;7391426;19;20007;-72
2023/05/08 07:50:44;;;;;;;12.00;7.95;;;;;;;;;;7371285;19;20010;-72
2023/05/08 07:53:09;;;;;;;11.48;7.75;;;;;;;;;;7365834;19;20509;-71
2023/05/08 07:55:34;;;;;;;14.35;8.48;;;;;;;;;;7370573;19;20040;-72
2023/05/08 07:58:00;;;;;;;10.50;7.38;;;;;;;;;;7369969;19;20145;-72
2023/05/08 08:00:28;;;;;;;11.10;7.43;;;;;;;;;;7393016;19;20003;-72
2023/05/08 08:02:54;;;;;;;9.98;7.45;;;;;;;;;;7369217;19;20014;-71
2023/05/08 08:05:19;;;;;;;12.02;7.40;;;;;;;;;;7371350;19;20029;-72
2023/05/08 08:07:45;;;;;;;10.32;7.07;;;;;;;;;;7370741;19;20022;-71
2023/05/08 08:10:11;;;;;;;12.02;7.50;;;;;;;;;;7372412;19;20085;-72
2023/05/08 08:12:36;;;;;;;11.15;6.28;;;;;;;;;;7394145;19;20010;-72
2023/05/08 08:15:02;;;;;;;11.25;7.80;;;;;;;;;;7371556;19;20011;-72
2023/05/08 08:17:27;;;;;;;10.52;7.38;;;;;;;;;;7369533;19;20074;-71
2023/05/08 08:19:52;;;;;;;12.45;7.57;;;;;;;;;;7371316;19;20516;-71
2023/05/08 08:22:18;;;;;;;14.00;7.93;;;;;;;;;;7370286;19;20043;-72
2023/05/08 08:24:43;;;;;;;10.57;6.70;;;;;;;;;;7371624;19;20002;-72
2023/05/08 08:27:09;;;;;;;11.13;7.43;;;;;;;;;;7391297;19;20063;-72
2023/05/08 08:29:34;;;;;;;9.68;7.05;;;;;;;;;;7370017;19;20461;-72
2023/05/08 08:32:02;;;;;;;16.88;8.15;;;;;;;;;;7370595;19;20039;-72
2023/05/08 08:34:32;;;;;;;12.05;7.82;;;;;;;;;;7370576;19;20025;-72
2023/05/08 08:36:57;;;;;;;12.52;8.30;;;;;;;;;;7368778;19;20040;-71
2023/05/08 08:39:23;;;;;;;11.70;7.80;;;;;;;;;;7392127;19;20003;-71
2023/05/08 08:41:48;;;;;;;11.15;7.38;;;;;;;;;;7370623;19;20517;-71
2023/05/08 08:44:13;;;;;;;10.68;7.85;;;;;;;;;;7370723;19;20018;-71
2023/05/08 08:46:44;;;;;;;9.88;7.05;;;;;;;;;;7369673;19;20010;-71
2023/05/08 08:49:13;;;;;;;11.47;8.07;;;;;;;;;;7370917;19;20368;-72
2023/05/08 08:51:50;;;;;;;11.43;7.32;;;;;;;;;;7380220;19;20252;-71
2023/05/08 08:54:20;;;;;;;12.70;7.45;;;;;;;;;;7391694;19;20365;-72
2023/05/08 08:56:48;;;;;;;13.93;8.45;;;;;;;;;;7368566;19;20007;-72
2023/05/08 08:59:15;;;;;;;13.85;8.50;;;;;;;;;;7370507;19;20003;-72
2023/05/08 09:01:44;;;;;;;14.55;7.72;;;;;;;;;;7371132;19;20025;-71
2023/05/08 09:04:09;;;;;;;12.55;7.03;;;;;;;;;;7371749;19;20019;-72
2023/05/08 09:06:37;;;;;;;11.70;7.75;;;;;;;;;;7392347;19;20014;-71
2023/05/08 09:09:03;;;;;;;11.50;8.13;;;;;;;;;;7371396;19;20105;-71
2023/05/08 09:11:29;;;;;;;11.63;8.15;;;;;;;;;;7370642;19;20475;-72
2023/05/08 09:13:55;;;;;;;13.38;7.97;;;;;;;;;;7370670;19;20010;-71
2023/05/08 09:16:21;;;;;;;10.85;8.27;;;;;;;;;;7376478;19;20010;-71
2023/05/08 09:18:47;;;;;;;15.40;8.75;;;;;;;;;;7375996;19;19995;-71
2023/05/08 09:21:13;;;;;;;11.65;7.78;;;;;;;;;;7399437;19;20544;-71
2023/05/08 09:23:58;;;;;;;12.55;8.18;;;;;;;;;;7379937;19;20010;-72
2023/05/08 09:26:28;;;;;;;12.57;8.10;;;;;;;;;;7375973;19;20010;-72
2023/05/08 09:29:06;;;;;;;10.75;7.72;;;;;;;;;;7376213;19;20006;-72
2023/05/08 09:31:36;;;;;;;10.68;8.15;;;;;;;;;;7375907;19;20017;-72
2023/05/08 09:34:01;;;;;;;14.43;8.77;;;;;;;;;;7375188;19;20010;-72
2023/05/08 09:36:27;;;;;;;17.40;8.50;;;;;;;;;;7397594;19;20618;-71
2023/05/08 09:38:53;;;;;;;12.85;9.00;;;;;;;;;;7372718;19;20472;-71
2023/05/08 09:41:18;;;;;;;21.17;9.07;;;;;;;;;;7375513;19;20021;-71
2023/05/08 09:43:58;;;;;;;15.18;8.73;;;;;;;;;;7375398;19;20023;-72
2023/05/08 09:46:25;;;;;;;14.48;8.38;;;;;;;;;;7375043;19;20043;-71
2023/05/08 09:48:58;;;;;;;12.27;7.72;;;;;;;;;;7374394;19;20006;-72
2023/05/08 09:51:25;;;;;;;12.98;8.65;;;;;;;;;;7396986;19;20006;-72
2023/05/08 09:53:52;;;;;;;12.98;7.82;;;;;;;;;;7375613;19;20097;-71
2023/05/08 09:56:38;;;;;;;13.73;8.00;;;;;;;;;;7374528;19;21921;-71
2023/05/08 09:59:27;;;;;;;14.23;8.05;;;;;;;;;;7374939;19;20386;-72
2023/05/08 10:01:53;;;;;;;14.18;8.57;;;;;;;;;;7375188;19;20020;-70
2023/05/08 10:04:39;;;;;;;11.75;8.85;;;;;;;;;;7375421;19;20011;-70
2023/05/08 10:07:04;;;;;;;20.58;10.15;;;;;;;;;;7375441;19;20015;-70
2023/05/08 10:09:29;;;;;;;17.77;9.05;;;;;;;;;;7400398;19;20009;-70
2023/05/08 10:11:55;;;;;;;16.13;8.23;;;;;;;;;;7376858;19;20014;-71
2023/05/08 10:14:21;;;;;;;13.57;9.25;;;;;;;;;;7375052;19;20014;-71
2023/05/08 10:16:49;;;;;;;12.50;9.27;;;;;;;;;;7373694;19;20010;-71
2023/05/08 10:19:16;;;;;;;13.25;8.35;;;;;;;;;;7372598;19;20504;-70
2023/05/08 10:21:50;;;;;;;12.40;8.80;;;;;;;;;;7374657;19;20006;-70
2023/05/08 10:24:26;;;;;;;15.15;9.57;;;;;;;;;;7395737;19;20082;-70
2023/05/08 10:26:52;;;;;;;14.55;8.98;;;;;;;;;;7371461;19;20010;-71
2023/05/08 10:29:23;;;;;;;15.63;9.45;;;;;;;;;;7373582;19;20014;-70
2023/05/08 10:31:55;;;;;;;13.38;8.70;;;;;;;;;;7374062;19;20024;-70
2023/05/08 10:34:22;;;;;;;14.23;8.93;;;;;;;;;;7374467;19;20005;-72
2023/05/08 10:36:49;;;;;;;14.23;8.95;;;;;;;;;;7371768;19;20007;-70
2023/05/08 10:39:15;;;;;;;14.10;8.85;;;;;;;;;;7393401;19;20484;-71
2023/05/08 10:41:41;;;;;;;10.63;7.30;;;;;;;;;;7373210;19;20002;-71
2023/05/08 10:44:08;;;;;;;15.57;9.55;;;;;;;;;;7372970;19;20082;-71
2023/05/08 10:46:42;;;;;;;12.70;8.65;;;;;;;;;;7373073;19;20010;-71
2023/05/08 10:49:29;;;;;;;14.05;9.07;;;;;;;;;;7375456;19;20610;-71
2023/05/08 10:52:06;;;;;;;14.93;8.98;;;;;;;;;;7376125;19;20505;-72
2023/05/08 10:54:57;;;;;;;13.25;9.02;;;;;;;;;;7396642;19;20021;-72
2023/05/08 10:57:22;;;;;;;12.32;8.57;;;;;;;;;;7377838;19;20372;-71
2023/05/08 10:59:48;;;;;;;12.07;8.07;;;;;;;;;;7375590;19;20035;-71
2023/05/08 11:02:14;;;;;;;14.35;8.15;;;;;;;;;;7377922;19;20514;-71
2023/05/08 11:04:39;;;;;;;12.43;9.35;;;;;;;;;;7381306;19;20017;-71
2023/05/08 11:07:05;;;;;;;13.30;9.38;;;;;;;;;;7381290;19;20002;-71
2023/05/08 11:09:39;;;;;;;12.32;9.07;;;;;;;;;;7405752;19;20608;-71
2023/05/08 11:12:29;;;;;;;14.35;8.57;;;;;;;;;;7388675;19;20011;-71
2023/05/08 11:15:05;;;;;;;12.55;9.38;;;;;;;;;;7388520;19;20567;-72
2023/05/08 11:17:31;;;;;;;14.23;9.38;;;;;;;;;;7380221;19;20010;-71
2023/05/08 11:20:04;;;;;;;16.05;9.80;;;;;;;;;;7379782;19;20030;-72
2023/05/08 11:22:31;;;;;;;11.57;8.18;;;;;;;;;;7379732;19;20724;-71
2023/05/08 11:24:58;;;;;;;14.40;9.10;;;;;;;;;;7378262;19;20055;-71
2023/05/08 11:27:36;;;;;;;15.00;10.02;;;;;;;;;;7396762;19;20002;-71
2023/05/08 11:30:36;;;;;;;16.25;9.95;;;;;;;;;;7376191;19;20015;-71
2023/05/08 11:33:01;;;;;;;13.65;10.13;;;;;;;;;;7376138;19;20378;-71
2023/05/08 11:35:40;;;;;;;13.32;9.02;;;;;;;;;;7376002;19;20014;-71
2023/05/08 11:38:35;;;;;;;12.88;8.95;;;;;;;;;;7372631;19;20010;-71
2023/05/08 11:41:02;;;;;;;14.02;9.57;;;;;;;;;;7374658;19;20019;-71
2023/05/08 11:43:34;;;;;;;12.38;9.07;;;;;;;;;;7374459;19;20010;-72
2023/05/08 11:46:02;;;;;;;15.38;9.50;;;;;;;;;;7373814;19;20668;-71
2023/05/08 11:48:28;;;;;;;12.50;9.45;;;;;;;;;;7397322;19;20289;-71
2023/05/08 11:50:54;;;;;;;12.70;9.82;;;;;;;;;;7377101;19;20027;-71
2023/05/08 11:53:20;;;;;;;13.93;9.30;;;;;;;;;;7377284;19;20508;-72
2023/05/08 11:55:50;;;;;;;11.90;9.10;;;;;;;;;;7376841;19;20034;-72
2023/05/08 11:58:16;;;;;;;14.50;9.48;;;;;;;;;;7374212;19;20015;-72
2023/05/08 12:00:43;;;;;;;13.65;10.25;;;;;;;;;;7377496;19;20483;-71
2023/05/08 12:03:17;;;;;;;15.80;10.05;;;;;;;;;;7397427;19;20033;-71
2023/05/08 12:05:43;;;;;;;15.95;10.15;;;;;;;;;;7373410;19;20019;-71
2023/05/08 12:08:09;;;;;;;15.98;10.93;;;;;;;;;;7372179;19;20010;-71
2023/05/08 12:10:56;;;;;;;11.93;9.73;;;;;;;;;;7373253;19;20035;-71
2023/05/08 12:13:24;;;;;;;14.50;10.18;;;;;;;;;;7372575;19;20014;-71
2023/05/08 12:15:52;;;;;;;11.60;8.07;;;;;;;;;;7374167;19;20006;-71
2023/05/08 12:18:18;;;;;;;14.35;10.00;;;;;;;;;;7394726;19;20642;-70
2023/05/08 12:20:44;;;;;;;16.95;10.40;;;;;;;;;;7377041;19;20013;-71
2023/05/08 12:23:10;;;;;;;16.30;9.88;;;;;;;;;;7374037;19;20013;-71
2023/05/08 12:25:37;;;;;;;14.75;10.05;;;;;;;;;;7372322;19;20105;-71
2023/05/08 12:28:04;;;;;;;14.85;10.25;;;;;;;;;;7370026;19;20047;-72
2023/05/08 12:30:30;;;;;;;13.52;10.05;;;;;;;;;;7393379;19;20009;-70
2023/05/08 12:32:55;;;;;;;12.25;9.30;;;;;;;;;;7371483;19;20461;-71
2023/05/08 12:35:21;;;;;;;15.55;9.90;;;;;;;;;;7369642;19;20010;-71
2023/05/08 12:37:46;;;;;;;15.77;9.80;;;;;;;;;;7369625;19;20006;-72
2023/05/08 12:40:30;;;;;;;12.30;9.55;;;;;;;;;;7369669;19;20017;-71
2023/05/08 12:42:55;;;;;;;16.17;10.50;;;;;;;;;;7368700;19;20074;-71
2023/05/08 12:45:27;;;;;;;13.30;9.82;;;;;;;;;;7392520;19;20389;-71
2023/05/08 12:47:57;;;;;;;16.60;10.52;;;;;;;;;;7368038;19;20014;-71
2023/05/08 12:50:25;;;;;;;16.23;11.00;;;;;;;;;;7376948;19;20009;-70
2023/05/08 12:52:51;;;;;;;16.30;11.77;;;;;;;;;;7380624;19;20010;-72
2023/05/08 12:55:22;;;;;;;16.17;10.45;;;;;;;;;;7380398;19;20010;-71
2023/05/08 12:57:48;;;;;;;18.33;11.52;;;;;;;;;;7375843;19;20027;-72
2023/05/08 13:00:15;;;;;;;15.13;10.85;;;;;;;;;;7399451;19;20032;-70
2023/05/08 13:02:51;;;;;;;15.20;11.48;;;;;;;;;;7377294;19;20006;-71
2023/05/08 13:05:21;;;;;;;14.85;11.15;;;;;;;;;;7377185;19;20474;-71
2023/05/08 13:07:46;;;;;;;16.48;11.20;;;;;;;;;;7380988;19;20002;-71
2023/05/08 13:10:12;;;;;;;15.73;11.23;;;;;;;;;;7380156;19;20030;-71
2023/05/08 13:12:37;;;;;;;13.98;10.60;;;;;;;;;;7399265;19;20404;-70
2023/05/08 13:15:03;;;;;;;17.15;10.68;;;;;;;;;;7377532;19;20002;-71
2023/05/08 13:17:29;;;;;;;14.93;10.75;;;;;;;;;;7374569;19;20002;-70
2023/05/08 13:19:54;;;;;;;16.73;10.20;;;;;;;;;;7375609;19;20025;-70
2023/05/08 13:22:21;;;;;;;13.02;10.25;;;;;;;;;;7377199;19;20006;-71
2023/05/08 13:24:47;;;;;;;13.55;9.88;;;;;;;;;;7377040;19;20002;-71
2023/05/08 13:27:13;;;;;;;13.55;9.43;;;;;;;;;;7396785;19;20010;-71
2023/05/08 13:29:38;;;;;;;16.45;10.45;;;;;;;;;;7375574;19;20377;-71
2023/05/08 13:32:04;;;;;;;15.15;10.57;;;;;;;;;;7376000;19;20032;-70
2023/05/08 13:34:29;;;;;;;16.27;10.50;;;;;;;;;;7375820;19;20018;-71
2023/05/08 13:36:54;;;;;;;16.10;10.30;;;;;;;;;;7374222;19;20030;-71
2023/05/08 13:39:20;;;;;;;13.65;10.02;;;;;;;;;;7396606;19;20074;-71
2023/05/08 13:41:45;;;;;;;12.73;9.73;;;;;;;;;;7375442;19;20488;-70
2023/05/08 13:44:10;;;;;;;12.95;9.60;;;;;;;;;;7375147;19;20014;-72
2023/05/08 13:46:36;;;;;;;13.82;9.98;;;;;;;;;;7375525;19;20006;-70
2023/05/08 13:49:01;;;;;;;15.23;9.70;;;;;;;;;;7376389;19;20178;-70
2023/05/08 13:51:26;;;;;;;12.38;9.75;;;;;;;;;;7402307;19;19998;-71
2023/05/08 13:53:51;;;;;;;12.55;9.65;;;;;;;;;;7381033;19;20121;-70
2023/05/08 13:56:17;;;;;;;13.55;9.73;;;;;;;;;;7380677;19;20477;-71
2023/05/08 13:58:42;;;;;;;12.70;9.52;;;;;;;;;;7380234;19;20016;-71
2023/05/08 14:01:08;;;;;;;11.63;9.32;;;;;;;;;;7376944;19;20007;-70
2023/05/08 14:03:33;;;;;;;14.15;9.07;;;;;;;;;;7397338;19;20505;-70
2023/05/08 14:05:58;;;;;;;12.07;9.02;;;;;;;;;;7374527;19;20066;-70
2023/05/08 14:08:23;;;;;;;15.48;9.75;;;;;;;;;;7374079;19;20011;-70
2023/05/08 14:10:49;;;;;;;12.10;9.15;;;;;;;;;;7374586;19;20006;-70
2023/05/08 14:13:14;;;;;;;13.25;8.20;;;;;;;;;;7377970;19;19999;-71
2023/05/08 14:15:40;;;;;;;11.77;8.73;;;;;;;;;;7380389;19;19995;-71
2023/05/08 14:18:06;;;;;;;15.23;8.15;;;;;;;;;;7394623;19;20010;-69
2023/05/08 14:20:31;;;;;;;12.70;8.25;;;;;;;;;;7374247;19;20372;-71
2023/05/08 14:22:56;;;;;;;14.30;8.95;;;;;;;;;;7373836;19;20007;-71
2023/05/08 14:25:22;;;;;;;11.93;9.10;;;;;;;;;;7374046;19;20002;-71
2023/05/08 14:27:47;;;;;;;13.45;8.68;;;;;;;;;;7371380;19;20030;-71
2023/05/08 14:30:13;;;;;;;11.00;8.38;;;;;;;;;;7395304;19;20006;-71
2023/05/08 14:32:39;;;;;;;13.15;8.55;;;;;;;;;;7373796;19;20007;-70
2023/05/08 14:35:05;;;;;;;15.57;9.15;;;;;;;;;;7373627;19;20484;-71
2023/05/08 14:37:30;;;;;;;20.42;9.13;;;;;;;;;;7371565;19;20063;-71